Time;durP1;ratioP1;P1;durP2;ratioP2;P2;SDS_P1;SDS_P2;PMS_P1;PMS_P2;Temp;Humidity;BMP_temperature;BMP_pressure;BME280_temperature;BME280_humidity;BME280_pressure;Samples;Min_cycle;Max_cycle;Signal;HPM_P1;HPM_P2
2022/10/01 00:00:48;;;;;;;16.05;7.85;;;;;;;;;;5028426;28;20022;-65
2022/10/01 00:03:13;;;;;;;17.90;7.78;;;;;;;;;;5028190;28;21229;-67
2022/10/01 00:05:38;;;;;;;19.23;7.32;;;;;;;;;;5028964;28;20086;-70
2022/10/01 00:08:03;;;;;;;14.23;7.15;;;;;;;;;;5028622;28;21355;-66
2022/10/01 00:10:29;;;;;;;11.68;6.63;;;;;;;;;;5028461;28;20026;-68
2022/10/01 00:12:54;;;;;;;16.30;6.78;;;;;;;;;;5027993;28;20029;-66
2022/10/01 00:15:20;;;;;;;15.07;6.45;;;;;;;;;;5010903;28;20048;-69
2022/10/01 00:17:46;;;;;;;14.77;6.38;;;;;;;;;;5026672;28;20026;-67
2022/10/01 00:20:11;;;;;;;17.02;6.78;;;;;;;;;;5027750;28;20029;-69
2022/10/01 00:22:37;;;;;;;15.77;7.10;;;;;;;;;;5027732;28;20092;-65
2022/10/01 00:25:03;;;;;;;14.68;6.90;;;;;;;;;;5028390;28;20045;-68
2022/10/01 00:27:29;;;;;;;12.30;6.18;;;;;;;;;;5028244;28;20053;-68
2022/10/01 00:29:54;;;;;;;12.57;6.50;;;;;;;;;;5028281;28;20052;-69
2022/10/01 00:32:23;;;;;;;15.20;6.47;;;;;;;;;;5028881;28;20013;-69
2022/10/01 00:34:48;;;;;;;15.02;5.82;;;;;;;;;;5028378;28;20029;-68
2022/10/01 00:37:14;;;;;;;14.98;6.10;;;;;;;;;;5028294;28;20071;-68
2022/10/01 00:39:39;;;;;;;14.55;6.72;;;;;;;;;;5024105;28;20049;-67
2022/10/01 00:42:16;;;;;;;12.73;5.57;;;;;;;;;;5028226;28;20015;-68
2022/10/01 00:44:42;;;;;;;10.70;5.57;;;;;;;;;;5028555;28;20014;-67
2022/10/01 00:47:13;;;;;;;13.55;5.72;;;;;;;;;;5027952;28;20717;-67
2022/10/01 00:49:39;;;;;;;16.42;6.65;;;;;;;;;;5028642;28;20060;-67
2022/10/01 00:52:07;;;;;;;15.02;6.63;;;;;;;;;;5029582;28;20476;-68
2022/10/01 00:54:36;;;;;;;17.45;6.43;;;;;;;;;;5027958;28;20116;-69
2022/10/01 00:57:02;;;;;;;16.88;6.55;;;;;;;;;;5028034;28;20022;-70
2022/10/01 00:59:28;;;;;;;13.63;5.43;;;;;;;;;;5028600;28;20033;-66
2022/10/01 01:01:53;;;;;;;14.63;5.50;;;;;;;;;;5028377;28;20110;-69
2022/10/01 01:04:18;;;;;;;11.60;5.68;;;;;;;;;;5027646;28;20022;-67
2022/10/01 01:06:50;;;;;;;13.02;5.55;;;;;;;;;;5027049;28;20424;-69
2022/10/01 01:09:15;;;;;;;12.32;4.97;;;;;;;;;;5028008;28;20073;-69
2022/10/01 01:11:44;;;;;;;12.93;5.03;;;;;;;;;;5027993;28;20026;-67
2022/10/01 01:14:17;;;;;;;10.90;5.22;;;;;;;;;;5028149;28;20048;-68
2022/10/01 01:16:47;;;;;;;11.20;4.40;;;;;;;;;;5027732;28;20539;-69
2022/10/01 01:19:23;;;;;;;10.57;4.57;;;;;;;;;;5027327;28;20030;-69
2022/10/01 01:21:52;;;;;;;10.50;5.20;;;;;;;;;;5027612;28;20097;-67
2022/10/01 01:24:29;;;;;;;11.98;4.82;;;;;;;;;;5027846;28;20182;-69
2022/10/01 01:26:57;;;;;;;8.88;4.20;;;;;;;;;;5030585;28;20100;-67
2022/10/01 01:29:27;;;;;;;11.65;4.97;;;;;;;;;;5030890;28;20475;-67
2022/10/01 01:31:54;;;;;;;10.90;4.88;;;;;;;;;;5019638;28;20113;-66
2022/10/01 01:34:23;;;;;;;8.50;4.47;;;;;;;;;;5031641;28;20095;-67
2022/10/01 01:36:57;;;;;;;8.82;4.35;;;;;;;;;;5031759;28;20027;-69
2022/10/01 01:39:25;;;;;;;10.13;4.70;;;;;;;;;;5013190;28;20506;-68
2022/10/01 01:41:51;;;;;;;11.02;4.45;;;;;;;;;;5031639;28;20021;-70
2022/10/01 01:44:29;;;;;;;11.35;4.72;;;;;;;;;;5031796;28;20049;-67
2022/10/01 01:46:57;;;;;;;15.35;4.93;;;;;;;;;;5031192;28;20025;-70
2022/10/01 01:49:24;;;;;;;10.07;5.00;;;;;;;;;;5031212;28;20049;-68
2022/10/01 01:51:59;;;;;;;11.60;4.68;;;;;;;;;;5031509;28;20057;-66
2022/10/01 01:54:25;;;;;;;12.45;5.55;;;;;;;;;;5030968;28;20017;-72
2022/10/01 01:56:51;;;;;;;11.70;4.68;;;;;;;;;;5031016;28;20087;-67
2022/10/01 01:59:18;;;;;;;9.63;4.30;;;;;;;;;;5031256;28;20021;-66
2022/10/01 02:01:44;;;;;;;10.00;4.03;;;;;;;;;;5021973;28;20418;-71
2022/10/01 02:04:16;;;;;;;15.55;4.25;;;;;;;;;;5030535;28;20032;-71
2022/10/01 02:06:53;;;;;;;16.15;4.32;;;;;;;;;;5030009;28;20017;-68
2022/10/01 02:09:18;;;;;;;13.80;4.68;;;;;;;;;;5019997;28;20614;-69
2022/10/01 02:11:48;;;;;;;15.23;4.60;;;;;;;;;;5033012;28;20053;-68
2022/10/01 02:14:19;;;;;;;9.75;4.53;;;;;;;;;;5014283;28;20253;-68
2022/10/01 02:16:51;;;;;;;15.02;4.88;;;;;;;;;;5012691;28;20398;-67
2022/10/01 02:19:27;;;;;;;10.88;4.65;;;;;;;;;;5031307;28;20453;-68
2022/10/01 02:21:52;;;;;;;8.73;4.13;;;;;;;;;;5030845;28;20490;-72
2022/10/01 02:24:32;;;;;;;8.32;3.92;;;;;;;;;;5031769;28;20023;-70
2022/10/01 02:26:59;;;;;;;10.98;5.20;;;;;;;;;;5030629;28;20679;-67
2022/10/01 02:29:25;;;;;;;7.53;4.40;;;;;;;;;;5030540;28;20081;-69
2022/10/01 02:31:52;;;;;;;12.98;4.90;;;;;;;;;;5031469;28;20025;-67
2022/10/01 02:34:18;;;;;;;9.18;4.35;;;;;;;;;;5012470;28;20399;-67
2022/10/01 02:36:44;;;;;;;10.00;4.93;;;;;;;;;;5029434;28;20029;-70
2022/10/01 02:39:10;;;;;;;10.93;4.80;;;;;;;;;;5026905;28;20464;-71
2022/10/01 02:41:35;;;;;;;10.48;4.72;;;;;;;;;;5031119;28;20028;-69
2022/10/01 02:44:03;;;;;;;9.23;4.93;;;;;;;;;;5031734;28;20013;-68
2022/10/01 02:46:38;;;;;;;8.60;4.82;;;;;;;;;;5031442;28;20064;-69
2022/10/01 02:49:04;;;;;;;9.10;4.47;;;;;;;;;;5031726;28;20032;-70
2022/10/01 02:51:35;;;;;;;8.80;4.50;;;;;;;;;;5031595;28;20375;-69
2022/10/01 02:54:05;;;;;;;12.15;4.70;;;;;;;;;;5031857;28;20541;-69
2022/10/01 02:59:15;;;;;;;14.20;4.63;;;;;;;;;;5031055;28;20048;-70
2022/10/01 03:01:40;;;;;;;8.70;5.20;;;;;;;;;;5031251;28;20476;-70
2022/10/01 03:04:06;;;;;;;12.68;5.15;;;;;;;;;;5031017;28;20064;-70
2022/10/01 03:06:34;;;;;;;9.82;5.15;;;;;;;;;;5030543;28;20090;-68
2022/10/01 03:09:00;;;;;;;8.68;5.13;;;;;;;;;;5030778;28;20010;-66
2022/10/01 03:11:25;;;;;;;10.38;4.85;;;;;;;;;;5030411;28;20048;-69
2022/10/01 03:13:52;;;;;;;14.00;4.70;;;;;;;;;;5029908;28;20032;-70
2022/10/01 03:16:17;;;;;;;10.52;4.70;;;;;;;;;;5030005;28;20009;-70
2022/10/01 03:18:42;;;;;;;11.77;5.10;;;;;;;;;;5012606;28;20020;-69
2022/10/01 03:21:08;;;;;;;10.03;5.17;;;;;;;;;;5029801;28;20032;-68
2022/10/01 03:23:33;;;;;;;9.00;4.68;;;;;;;;;;5030688;28;20734;-69
2022/10/01 03:25:58;;;;;;;11.25;4.85;;;;;;;;;;5030532;28;20056;-70
2022/10/01 03:28:23;;;;;;;11.57;5.68;;;;;;;;;;5028194;28;20017;-70
2022/10/01 03:30:49;;;;;;;11.38;5.13;;;;;;;;;;5019067;28;20113;-67
2022/10/01 03:33:14;;;;;;;10.15;5.15;;;;;;;;;;5028739;28;20402;-69
2022/10/01 03:35:39;;;;;;;11.50;4.38;;;;;;;;;;5030024;28;20032;-68
2022/10/01 03:38:05;;;;;;;9.65;5.10;;;;;;;;;;5011933;28;20021;-68
2022/10/01 03:40:32;;;;;;;10.25;4.93;;;;;;;;;;5029043;28;20459;-66
2022/10/01 03:42:57;;;;;;;10.98;5.43;;;;;;;;;;5011943;28;20025;-68
2022/10/01 03:45:22;;;;;;;14.60;5.68;;;;;;;;;;5028957;28;20024;-68
2022/10/01 03:47:51;;;;;;;14.60;5.45;;;;;;;;;;5027943;28;20013;-69
2022/10/01 03:50:16;;;;;;;8.63;4.70;;;;;;;;;;5029387;28;20025;-70
2022/10/01 03:52:43;;;;;;;10.82;5.50;;;;;;;;;;5012424;28;20096;-68
2022/10/01 03:55:09;;;;;;;9.60;5.00;;;;;;;;;;5028887;28;20483;-68
2022/10/01 03:57:34;;;;;;;9.57;5.45;;;;;;;;;;5028944;28;20115;-70
2022/10/01 03:59:59;;;;;;;10.23;5.45;;;;;;;;;;5012100;28;20026;-71
2022/10/01 04:02:26;;;;;;;16.67;5.05;;;;;;;;;;5011675;28;20017;-70
2022/10/01 04:04:51;;;;;;;10.15;5.25;;;;;;;;;;5012030;28;20028;-69
2022/10/01 04:07:16;;;;;;;10.38;5.60;;;;;;;;;;5029485;28;20383;-69
2022/10/01 04:09:42;;;;;;;16.13;5.80;;;;;;;;;;5011996;28;20109;-67
2022/10/01 04:12:07;;;;;;;10.02;6.15;;;;;;;;;;5028301;28;20265;-70
2022/10/01 04:14:32;;;;;;;11.77;5.95;;;;;;;;;;5029553;28;20029;-68
2022/10/01 04:16:57;;;;;;;9.25;5.40;;;;;;;;;;5028303;28;20060;-66
2022/10/01 04:19:23;;;;;;;10.85;6.10;;;;;;;;;;5011077;28;20491;-70
2022/10/01 04:21:48;;;;;;;13.57;6.35;;;;;;;;;;5029248;28;20031;-69
2022/10/01 04:24:13;;;;;;;8.80;5.50;;;;;;;;;;5030229;28;20491;-70
2022/10/01 04:26:38;;;;;;;11.65;6.40;;;;;;;;;;5028525;28;20546;-69
2022/10/01 04:29:03;;;;;;;14.18;6.85;;;;;;;;;;5028740;28;20037;-69
2022/10/01 04:31:33;;;;;;;11.10;6.82;;;;;;;;;;5028344;28;20022;-68
2022/10/01 04:33:58;;;;;;;10.60;5.35;;;;;;;;;;5011147;28;20021;-68
2022/10/01 04:36:24;;;;;;;19.67;6.95;;;;;;;;;;5029188;28;20487;-70
2022/10/01 04:38:53;;;;;;;16.02;7.43;;;;;;;;;;5009259;28;20109;-68
2022/10/01 04:41:18;;;;;;;12.73;6.78;;;;;;;;;;5027579;28;20100;-70
2022/10/01 04:43:44;;;;;;;14.40;7.07;;;;;;;;;;5029441;28;20112;-69
2022/10/01 04:46:09;;;;;;;12.23;7.22;;;;;;;;;;5027409;28;20053;-69
2022/10/01 04:48:34;;;;;;;13.35;7.55;;;;;;;;;;5009867;28;20025;-70
2022/10/01 04:51:00;;;;;;;13.40;7.00;;;;;;;;;;5029177;28;20029;-69
2022/10/01 04:53:25;;;;;;;13.90;6.85;;;;;;;;;;5028317;28;20018;-69
2022/10/01 04:55:50;;;;;;;13.18;7.55;;;;;;;;;;5028732;28;20021;-70
2022/10/01 04:58:16;;;;;;;12.48;7.07;;;;;;;;;;5028347;28;20041;-70
2022/10/01 05:00:41;;;;;;;13.98;7.65;;;;;;;;;;5031826;28;20040;-68
2022/10/01 05:03:06;;;;;;;13.52;7.68;;;;;;;;;;5033885;28;20025;-68
2022/10/01 05:05:33;;;;;;;15.88;8.30;;;;;;;;;;5033480;28;20014;-70
2022/10/01 05:07:59;;;;;;;15.50;6.90;;;;;;;;;;5032887;28;20021;-67
2022/10/01 05:10:24;;;;;;;12.98;7.03;;;;;;;;;;5033754;28;20398;-67
2022/10/01 05:12:50;;;;;;;13.43;7.70;;;;;;;;;;5032561;28;20376;-69
2022/10/01 05:15:16;;;;;;;13.40;7.15;;;;;;;;;;5015465;28;20021;-68
2022/10/01 05:17:41;;;;;;;14.80;7.88;;;;;;;;;;5032949;28;20546;-70
2022/10/01 05:20:08;;;;;;;13.38;7.38;;;;;;;;;;5033003;28;20025;-67
2022/10/01 05:22:34;;;;;;;13.88;7.03;;;;;;;;;;5033018;28;20542;-70
2022/10/01 05:24:59;;;;;;;13.77;7.17;;;;;;;;;;5015222;28;20033;-71
2022/10/01 05:27:25;;;;;;;10.48;7.13;;;;;;;;;;5031774;28;20275;-68
2022/10/01 05:29:51;;;;;;;16.17;8.30;;;;;;;;;;5018386;28;20018;-71
2022/10/01 05:32:16;;;;;;;14.18;8.55;;;;;;;;;;5023384;28;20025;-71
2022/10/01 05:34:41;;;;;;;17.40;7.32;;;;;;;;;;5032638;28;20049;-68
2022/10/01 05:37:07;;;;;;;16.60;8.02;;;;;;;;;;5014676;28;20025;-69
2022/10/01 05:39:32;;;;;;;12.02;7.32;;;;;;;;;;5033334;28;20490;-68
2022/10/01 05:41:57;;;;;;;18.38;8.00;;;;;;;;;;5031754;28;20076;-69
2022/10/01 05:44:23;;;;;;;12.80;7.72;;;;;;;;;;5032409;28;20017;-69
2022/10/01 05:46:49;;;;;;;14.43;7.07;;;;;;;;;;5032483;28;20013;-67
2022/10/01 05:49:15;;;;;;;14.13;7.93;;;;;;;;;;5032308;28;20026;-71
2022/10/01 05:51:40;;;;;;;15.40;7.35;;;;;;;;;;5031462;28;20028;-69
2022/10/01 05:54:05;;;;;;;12.65;7.22;;;;;;;;;;5031617;28;20438;-71
2022/10/01 05:56:31;;;;;;;11.30;6.77;;;;;;;;;;5035435;28;20045;-69
2022/10/01 05:58:56;;;;;;;15.18;7.65;;;;;;;;;;5030553;28;20262;-71
2022/10/01 06:01:21;;;;;;;15.68;7.78;;;;;;;;;;5027297;28;20021;-68
2022/10/01 06:03:51;;;;;;;15.52;7.65;;;;;;;;;;5025659;28;20027;-69
2022/10/01 06:06:21;;;;;;;14.73;7.10;;;;;;;;;;5024786;28;20371;-69
2022/10/01 06:08:46;;;;;;;14.70;7.70;;;;;;;;;;5027655;28;20364;-69
2022/10/01 06:11:11;;;;;;;14.48;6.80;;;;;;;;;;5030376;28;20075;-71
2022/10/01 06:13:37;;;;;;;13.02;6.57;;;;;;;;;;5030065;28;20021;-67
2022/10/01 06:16:02;;;;;;;11.75;7.00;;;;;;;;;;5027147;28;20081;-70
2022/10/01 06:18:27;;;;;;;18.65;6.97;;;;;;;;;;5025526;28;20709;-69
2022/10/01 06:20:52;;;;;;;9.82;6.38;;;;;;;;;;5028710;28;20132;-73
2022/10/01 06:23:18;;;;;;;16.50;6.32;;;;;;;;;;5027297;28;20056;-70
2022/10/01 06:25:44;;;;;;;14.15;6.88;;;;;;;;;;5023915;28;20017;-68
2022/10/01 06:28:10;;;;;;;10.43;6.07;;;;;;;;;;5013062;28;20045;-70
2022/10/01 06:30:36;;;;;;;17.00;6.40;;;;;;;;;;5030855;28;20491;-68
2022/10/01 06:33:05;;;;;;;13.30;6.32;;;;;;;;;;5034035;28;20112;-71
2022/10/01 06:35:31;;;;;;;12.40;6.88;;;;;;;;;;5027345;28;20095;-68
2022/10/01 06:37:57;;;;;;;14.02;6.07;;;;;;;;;;5031058;28;20028;-67
2022/10/01 06:40:23;;;;;;;14.00;6.70;;;;;;;;;;5030688;28;20037;-70
2022/10/01 06:42:48;;;;;;;13.52;6.38;;;;;;;;;;5031176;28;20029;-71
2022/10/01 06:45:14;;;;;;;11.93;5.88;;;;;;;;;;5031755;28;20491;-70
2022/10/01 06:47:40;;;;;;;15.18;7.15;;;;;;;;;;5030422;28;20502;-69
2022/10/01 06:50:05;;;;;;;11.77;6.07;;;;;;;;;;5013223;28;20021;-69
2022/10/01 06:52:49;;;;;;;11.32;6.60;;;;;;;;;;5030749;28;20080;-70
2022/10/01 06:55:17;;;;;;;20.27;8.48;;;;;;;;;;5030913;28;20048;-70
2022/10/01 06:57:43;;;;;;;12.82;6.57;;;;;;;;;;5029426;28;20091;-67
2022/10/01 07:00:08;;;;;;;12.40;6.63;;;;;;;;;;5030909;28;20112;-70
2022/10/01 07:02:34;;;;;;;14.13;7.07;;;;;;;;;;5030932;28;20532;-67
2022/10/01 07:05:00;;;;;;;13.25;6.10;;;;;;;;;;5030506;28;20023;-68
2022/10/01 07:07:29;;;;;;;12.85;6.93;;;;;;;;;;5030001;28;20021;-68
2022/10/01 07:09:55;;;;;;;16.25;6.70;;;;;;;;;;5030435;28;20546;-67
2022/10/01 07:12:20;;;;;;;15.35;5.82;;;;;;;;;;5032097;28;20130;-67
2022/10/01 07:14:45;;;;;;;12.48;5.70;;;;;;;;;;5028990;28;20503;-69
2022/10/01 07:17:10;;;;;;;13.52;6.15;;;;;;;;;;5029872;28;20025;-68
2022/10/01 07:19:36;;;;;;;11.80;6.63;;;;;;;;;;5029803;28;20375;-70
2022/10/01 07:22:01;;;;;;;12.82;6.25;;;;;;;;;;5012500;28;20067;-67
2022/10/01 07:24:26;;;;;;;13.65;7.00;;;;;;;;;;5012092;28;20014;-68
2022/10/01 07:26:54;;;;;;;13.82;7.05;;;;;;;;;;5029481;28;20021;-72
2022/10/01 07:29:19;;;;;;;20.35;6.70;;;;;;;;;;5027182;28;20021;-68
2022/10/01 07:31:45;;;;;;;9.63;5.18;;;;;;;;;;5017657;28;20032;-69
2022/10/01 07:34:10;;;;;;;12.55;5.90;;;;;;;;;;5029442;28;20021;-69
2022/10/01 07:36:35;;;;;;;12.02;6.32;;;;;;;;;;5011526;28;20121;-69
2022/10/01 07:39:00;;;;;;;14.73;6.55;;;;;;;;;;5029916;28;20120;-70
2022/10/01 07:41:26;;;;;;;13.30;6.18;;;;;;;;;;5030530;28;20021;-67
2022/10/01 07:43:51;;;;;;;13.68;6.50;;;;;;;;;;5030563;28;20390;-68
2022/10/01 07:46:16;;;;;;;13.02;6.85;;;;;;;;;;5030491;28;20491;-71
2022/10/01 07:48:42;;;;;;;11.00;6.22;;;;;;;;;;5030362;28;20066;-70
2022/10/01 07:51:08;;;;;;;15.77;7.25;;;;;;;;;;5030228;28;20021;-67
2022/10/01 07:53:33;;;;;;;14.98;7.22;;;;;;;;;;5030541;28;20498;-68
2022/10/01 07:56:01;;;;;;;16.57;7.43;;;;;;;;;;5029862;28;20026;-70
2022/10/01 07:58:26;;;;;;;20.95;8.23;;;;;;;;;;5029162;28;20636;-69
2022/10/01 08:00:57;;;;;;;11.05;7.18;;;;;;;;;;5029566;28;20052;-67
2022/10/01 08:03:22;;;;;;;12.90;6.70;;;;;;;;;;5029886;28;20029;-69
2022/10/01 08:05:48;;;;;;;11.63;7.45;;;;;;;;;;5011918;28;20021;-67
2022/10/01 08:08:14;;;;;;;12.55;6.85;;;;;;;;;;5030078;28;20018;-70
2022/10/01 08:10:40;;;;;;;13.60;7.18;;;;;;;;;;5011943;28;20025;-68
2022/10/01 08:13:07;;;;;;;12.98;7.32;;;;;;;;;;5025561;28;20059;-69
2022/10/01 08:15:33;;;;;;;14.43;7.07;;;;;;;;;;5028736;28;20021;-68
2022/10/01 08:18:02;;;;;;;15.38;7.72;;;;;;;;;;5024646;28;20036;-68
2022/10/01 08:20:27;;;;;;;14.43;7.32;;;;;;;;;;5022823;28;20033;-69
2022/10/01 08:22:52;;;;;;;16.58;7.40;;;;;;;;;;5023857;28;20411;-67
2022/10/01 08:25:18;;;;;;;13.30;7.35;;;;;;;;;;5010599;28;20049;-66
2022/10/01 08:27:43;;;;;;;13.27;7.53;;;;;;;;;;5028170;28;20099;-67
2022/10/01 08:30:08;;;;;;;20.10;8.48;;;;;;;;;;5027297;28;20588;-70
2022/10/01 08:32:33;;;;;;;13.65;6.90;;;;;;;;;;5028834;28;20056;-70
2022/10/01 08:35:00;;;;;;;11.27;7.07;;;;;;;;;;5003187;28;20029;-68
2022/10/01 08:37:28;;;;;;;13.07;6.53;;;;;;;;;;5029402;28;20451;-69
2022/10/01 08:39:54;;;;;;;13.23;7.40;;;;;;;;;;5026828;28;20025;-68
2022/10/01 08:42:20;;;;;;;11.63;6.47;;;;;;;;;;5028886;28;20367;-70
2022/10/01 08:44:46;;;;;;;12.38;6.20;;;;;;;;;;5029121;28;20033;-67
2022/10/01 08:47:15;;;;;;;12.18;6.72;;;;;;;;;;5028435;28;20022;-68
2022/10/01 08:49:41;;;;;;;;;;;;;;;;;;5011916;28;20079;-68
2022/10/01 08:52:06;;;;;;;11.60;5.68;;;;;;;;;;5028725;28;19913;-67
2022/10/01 08:54:33;;;;;;;14.55;5.60;;;;;;;;;;5025727;28;20078;-70
2022/10/01 08:57:00;;;;;;;17.58;6.95;;;;;;;;;;5028824;28;20251;-66
2022/10/01 08:59:26;;;;;;;12.68;5.82;;;;;;;;;;5028477;28;20041;-70
2022/10/01 09:01:51;;;;;;;11.45;5.53;;;;;;;;;;5007912;28;20085;-67
2022/10/01 09:04:16;;;;;;;13.18;5.90;;;;;;;;;;5027487;28;20513;-69
2022/10/01 09:06:42;;;;;;;10.20;6.00;;;;;;;;;;5028675;28;20084;-69
2022/10/01 09:09:20;;;;;;;16.13;6.70;;;;;;;;;;5028956;28;20052;-68
2022/10/01 09:12:00;;;;;;;10.85;5.60;;;;;;;;;;5011341;28;20029;-66
2022/10/01 09:14:36;;;;;;;11.23;5.63;;;;;;;;;;5028739;28;20018;-68
2022/10/01 09:17:07;;;;;;;9.43;5.30;;;;;;;;;;5029170;28;20013;-67
2022/10/01 09:19:40;;;;;;;11.77;5.40;;;;;;;;;;5028910;28;20462;-70
2022/10/01 09:22:10;;;;;;;9.23;5.28;;;;;;;;;;5029223;28;20104;-67
2022/10/01 09:24:43;;;;;;;8.32;4.93;;;;;;;;;;5010964;28;20054;-67
2022/10/01 09:27:18;;;;;;;8.98;4.93;;;;;;;;;;5016523;28;20014;-68
2022/10/01 09:29:46;;;;;;;12.10;5.65;;;;;;;;;;5027753;28;20025;-71
2022/10/01 09:32:14;;;;;;;8.68;5.07;;;;;;;;;;5025775;28;20029;-70
2022/10/01 09:34:41;;;;;;;8.30;4.78;;;;;;;;;;5026078;28;20056;-69
2022/10/01 09:37:06;;;;;;;11.38;5.57;;;;;;;;;;5022350;28;20029;-70
2022/10/01 09:39:41;;;;;;;9.48;5.22;;;;;;;;;;5025485;28;20044;-71
2022/10/01 09:42:06;;;;;;;10.35;4.25;;;;;;;;;;5029389;28;20148;-69
2022/10/01 09:44:32;;;;;;;14.70;5.03;;;;;;;;;;5027326;28;20368;-70
2022/10/01 09:46:57;;;;;;;9.82;5.28;;;;;;;;;;5009349;28;20094;-69
2022/10/01 09:49:38;;;;;;;8.43;4.85;;;;;;;;;;5032548;28;20590;-68
2022/10/01 09:52:06;;;;;;;7.57;4.18;;;;;;;;;;5032298;28;20013;-69
2022/10/01 09:54:34;;;;;;;9.45;3.65;;;;;;;;;;5028353;28;20025;-70
2022/10/01 09:57:06;;;;;;;7.85;3.88;;;;;;;;;;5032299;28;20009;-69
2022/10/01 09:59:39;;;;;;;8.40;3.42;;;;;;;;;;5016266;28;20021;-67
2022/10/01 10:02:13;;;;;;;6.85;3.15;;;;;;;;;;5034072;28;20025;-71
2022/10/01 10:04:39;;;;;;;6.40;2.45;;;;;;;;;;5036991;28;20040;-69
2022/10/01 10:07:04;;;;;;;5.22;1.98;;;;;;;;;;5036251;28;20017;-69
2022/10/01 10:09:31;;;;;;;6.97;2.15;;;;;;;;;;5035506;28;20018;-69
2022/10/01 10:11:58;;;;;;;4.57;2.10;;;;;;;;;;5034339;28;20079;-69
2022/10/01 10:14:31;;;;;;;5.18;1.77;;;;;;;;;;5029892;28;20017;-68
2022/10/01 10:16:57;;;;;;;3.00;1.50;;;;;;;;;;5031435;28;20017;-70
2022/10/01 10:19:25;;;;;;;8.95;2.03;;;;;;;;;;5031420;28;20052;-69
2022/10/01 10:21:51;;;;;;;5.70;1.98;;;;;;;;;;5013642;28;20029;-68
2022/10/01 10:24:30;;;;;;;5.00;1.85;;;;;;;;;;5030727;28;20033;-67
2022/10/01 10:26:55;;;;;;;;;;;;;;;;;;5031411;28;20032;-69
2022/10/01 10:29:25;;;;;;;5.40;1.50;;;;;;;;;;5027814;28;19916;-66
2022/10/01 10:31:50;;;;;;;5.45;1.75;;;;;;;;;;5026614;28;20281;-67
2022/10/01 10:34:16;;;;;;;7.38;1.83;;;;;;;;;;5022497;28;20022;-67
2022/10/01 10:36:42;;;;;;;2.97;1.60;;;;;;;;;;5024380;28;20028;-67
2022/10/01 10:39:16;;;;;;;3.58;1.30;;;;;;;;;;5024471;28;20033;-67
2022/10/01 10:41:43;;;;;;;3.35;1.42;;;;;;;;;;5022476;28;20630;-68
2022/10/01 10:44:13;;;;;;;3.97;1.65;;;;;;;;;;5023556;28;20014;-67
2022/10/01 10:46:38;;;;;;;3.20;1.40;;;;;;;;;;5022728;28;20026;-65
2022/10/01 10:49:04;;;;;;;3.63;1.52;;;;;;;;;;5023779;28;20017;-66
2022/10/01 10:51:29;;;;;;;2.13;1.40;;;;;;;;;;5022668;28;20029;-66
2022/10/01 10:53:55;;;;;;;2.88;1.35;;;;;;;;;;5024266;28;20639;-69
2022/10/01 10:56:22;;;;;;;4.85;1.77;;;;;;;;;;5022195;28;20036;-67
2022/10/01 10:58:48;;;;;;;3.17;1.42;;;;;;;;;;5022703;28;20522;-64
2022/10/01 11:01:16;;;;;;;3.08;1.35;;;;;;;;;;5023312;28;20101;-67
2022/10/01 11:03:49;;;;;;;2.75;1.63;;;;;;;;;;5023685;28;20017;-70
2022/10/01 11:06:17;;;;;;;2.30;1.52;;;;;;;;;;5021645;28;20021;-65
2022/10/01 11:08:42;;;;;;;3.03;1.48;;;;;;;;;;5023157;28;20025;-68
2022/10/01 11:11:21;;;;;;;4.38;1.52;;;;;;;;;;5024096;28;20056;-67
2022/10/01 11:13:49;;;;;;;3.95;1.70;;;;;;;;;;5023415;28;20033;-67
2022/10/01 11:16:30;;;;;;;3.40;1.50;;;;;;;;;;5021290;28;20120;-66
2022/10/01 11:19:01;;;;;;;2.72;1.40;;;;;;;;;;5023183;28;20034;-67
2022/10/01 11:21:34;;;;;;;2.60;1.55;;;;;;;;;;5021567;28;20040;-68
2022/10/01 11:24:12;;;;;;;2.78;1.40;;;;;;;;;;5023870;28;20060;-66
2022/10/01 11:26:56;;;;;;;2.20;0.98;;;;;;;;;;5020152;28;20018;-67
2022/10/01 11:29:40;;;;;;;4.30;1.65;;;;;;;;;;5022805;28;20029;-67
2022/10/01 11:32:21;;;;;;;3.35;1.05;;;;;;;;;;5022651;28;20466;-69
2022/10/01 11:34:55;;;;;;;2.45;1.17;;;;;;;;;;5020766;28;20052;-65
2022/10/01 11:37:28;;;;;;;2.03;1.17;;;;;;;;;;5023960;28;20025;-68
2022/10/01 11:39:55;;;;;;;3.03;1.40;;;;;;;;;;5009921;28;20048;-65
2022/10/01 11:42:30;;;;;;;2.30;1.08;;;;;;;;;;5024322;28;20119;-68
2022/10/01 11:45:03;;;;;;;3.38;1.40;;;;;;;;;;5024659;28;20512;-68
2022/10/01 11:47:30;;;;;;;2.60;1.13;;;;;;;;;;5027620;28;20029;-65
2022/10/01 11:50:01;;;;;;;4.93;1.38;;;;;;;;;;5026665;28;20040;-65
2022/10/01 11:52:51;;;;;;;6.47;1.20;;;;;;;;;;5028669;28;21459;-67
2022/10/01 12:01:10;;;;;;;4.85;1.30;;;;;;;;;;5024947;28;20044;-68
2022/10/01 12:03:38;;;;;;;2.40;1.00;;;;;;;;;;5022489;28;20033;-67
2022/10/01 12:06:08;;;;;;;2.43;1.23;;;;;;;;;;5021182;28;20088;-67
2022/10/01 12:08:34;;;;;;;2.20;1.17;;;;;;;;;;5004641;28;20103;-66
2022/10/01 12:11:05;;;;;;;1.65;1.02;;;;;;;;;;5022190;28;20029;-67
2022/10/01 12:13:33;;;;;;;1.40;0.70;;;;;;;;;;5021254;28;20065;-69
2022/10/01 12:16:08;;;;;;;3.75;1.17;;;;;;;;;;5021291;28;20384;-68
2022/10/01 12:18:42;;;;;;;0.70;0.63;;;;;;;;;;5021590;28;20597;-66
2022/10/01 12:21:14;;;;;;;1.52;0.90;;;;;;;;;;5022556;28;20025;-66
2022/10/01 12:23:46;;;;;;;1.00;0.75;;;;;;;;;;5022440;28;20037;-65
2022/10/01 12:26:14;;;;;;;1.80;0.90;;;;;;;;;;5020856;28;20025;-67
2022/10/01 12:28:42;;;;;;;1.60;0.82;;;;;;;;;;5021738;28;20484;-66
2022/10/01 12:31:26;;;;;;;1.95;0.98;;;;;;;;;;5010233;28;20029;-66
2022/10/01 12:34:00;;;;;;;1.83;1.00;;;;;;;;;;5019660;28;21127;-67
2022/10/01 12:36:48;;;;;;;5.88;0.90;;;;;;;;;;5020639;28;20025;-66
2022/10/01 12:39:14;;;;;;;2.33;0.90;;;;;;;;;;5014174;28;20045;-67
2022/10/01 12:41:49;;;;;;;1.93;0.90;;;;;;;;;;5024347;28;20106;-66
2022/10/01 12:44:24;;;;;;;1.48;0.75;;;;;;;;;;5017649;28;20265;-66
2022/10/01 12:47:01;;;;;;;1.67;1.02;;;;;;;;;;5027599;28;20013;-66
2022/10/01 12:49:29;;;;;;;2.17;0.90;;;;;;;;;;5028002;28;20014;-68
2022/10/01 12:52:10;;;;;;;1.50;0.80;;;;;;;;;;5028489;28;20021;-67
2022/10/01 12:54:45;;;;;;;1.15;0.75;;;;;;;;;;5026202;28;20048;-66
2022/10/01 12:57:10;;;;;;;1.73;0.95;;;;;;;;;;5023285;28;20017;-66
2022/10/01 12:59:39;;;;;;;1.30;0.70;;;;;;;;;;5028584;28;20100;-65
2022/10/01 13:02:19;;;;;;;1.30;0.70;;;;;;;;;;5024610;28;20585;-65
2022/10/01 13:05:07;;;;;;;1.35;0.70;;;;;;;;;;5029867;28;20129;-66
2022/10/01 13:08:08;;;;;;;0.85;0.60;;;;;;;;;;5014156;28;20487;-67
2022/10/01 13:10:51;;;;;;;1.02;0.73;;;;;;;;;;4969640;28;20035;-68
2022/10/01 13:13:24;;;;;;;3.75;0.80;;;;;;;;;;5018575;28;20183;-69
2022/10/01 13:15:57;;;;;;;1.65;0.77;;;;;;;;;;5028641;28;20537;-67
2022/10/01 13:18:25;;;;;;;1.40;0.95;;;;;;;;;;5029408;28;20037;-67
2022/10/01 13:21:05;;;;;;;1.63;0.80;;;;;;;;;;5029930;28;20500;-64
2022/10/01 13:23:38;;;;;;;0.90;0.70;;;;;;;;;;5033532;28;20420;-66
2022/10/01 13:26:10;;;;;;;2.40;1.08;;;;;;;;;;5014178;28;20160;-67
2022/10/01 13:28:53;;;;;;;0.85;0.70;;;;;;;;;;5032848;28;20088;-65
2022/10/01 13:31:30;;;;;;;1.95;0.90;;;;;;;;;;5030796;28;20024;-66
2022/10/01 13:33:56;;;;;;;0.60;0.52;;;;;;;;;;5032608;28;20045;-66
2022/10/01 13:36:28;;;;;;;1.63;0.93;;;;;;;;;;5032434;28;20121;-67
2022/10/01 13:38:53;;;;;;;1.90;0.93;;;;;;;;;;5031874;28;20083;-65
2022/10/01 13:41:24;;;;;;;0.93;0.70;;;;;;;;;;5032543;28;20021;-65
2022/10/01 13:43:57;;;;;;;1.40;0.80;;;;;;;;;;5032595;28;20254;-65
2022/10/01 13:46:24;;;;;;;1.73;0.80;;;;;;;;;;5013978;28;20033;-65
2022/10/01 13:48:50;;;;;;;0.90;0.63;;;;;;;;;;5032803;28;20653;-66
2022/10/01 13:51:15;;;;;;;1.40;0.90;;;;;;;;;;5032129;28;20030;-66
2022/10/01 13:53:41;;;;;;;5.32;1.00;;;;;;;;;;5032603;28;20056;-65
2022/10/01 13:56:06;;;;;;;3.92;0.77;;;;;;;;;;5032170;28;20026;-67
2022/10/01 13:58:39;;;;;;;1.58;0.70;;;;;;;;;;5031916;28;20636;-67
2022/10/01 14:01:25;;;;;;;2.10;0.65;;;;;;;;;;5031417;28;20534;-65
2022/10/01 14:03:56;;;;;;;2.67;0.65;;;;;;;;;;5020867;28;20113;-67
2022/10/01 14:06:29;;;;;;;1.95;0.90;;;;;;;;;;5030237;28;20010;-65
2022/10/01 14:09:03;;;;;;;2.25;0.98;;;;;;;;;;5032333;28;20036;-68
2022/10/01 14:17:08;;;;;;;0.93;0.70;;;;;;;;;;5025461;28;20039;-68
2022/10/01 14:19:34;;;;;;;1.63;0.70;;;;;;;;;;5031628;28;20026;-67
2022/10/01 14:22:15;;;;;;;1.48;0.85;;;;;;;;;;5031770;28;20071;-66
2022/10/01 14:24:43;;;;;;;1.48;0.80;;;;;;;;;;5031173;28;20026;-66
2022/10/01 14:27:24;;;;;;;3.58;0.60;;;;;;;;;;5030968;28;20014;-64
2022/10/01 14:29:50;;;;;;;2.05;1.00;;;;;;;;;;5028301;28;20037;-66
2022/10/01 14:32:21;;;;;;;3.13;0.82;;;;;;;;;;5012987;28;20022;-67
2022/10/01 14:34:49;;;;;;;2.97;0.73;;;;;;;;;;5031627;28;20104;-66
2022/10/01 14:37:16;;;;;;;1.42;0.73;;;;;;;;;;5030970;28;20025;-66
2022/10/01 14:39:41;;;;;;;1.92;0.80;;;;;;;;;;5031747;28;20025;-64
2022/10/01 14:42:12;;;;;;;0.57;0.55;;;;;;;;;;5031633;28;20033;-67
2022/10/01 14:44:39;;;;;;;0.90;0.70;;;;;;;;;;5030805;28;20432;-67
2022/10/01 14:47:12;;;;;;;0.77;0.68;;;;;;;;;;5030591;28;20013;-67
2022/10/01 14:49:37;;;;;;;0.90;0.70;;;;;;;;;;5030625;28;20048;-67
2022/10/01 14:52:04;;;;;;;2.60;0.88;;;;;;;;;;5031176;28;20049;-65
2022/10/01 14:54:37;;;;;;;4.88;0.70;;;;;;;;;;5031264;28;20552;-65
2022/10/01 14:57:07;;;;;;;1.38;0.75;;;;;;;;;;5012821;28;20498;-65